Wind EuroAirport

Messzeit Windrichtung Windgeschwindigkeit [Knoten] Rückenwind Nordpiste [Knoten] METAR
2021-09-17 20:30 NW 320° 5 5 LFSB 171830Z AUTO 32005KT 9999 BKN052 16/11 Q1015 NOSIG
2021-09-17 20:00 NW 330° 5 5 LFSB 171800Z AUTO 33005KT 9999 OVC052 18/12 Q1014 NOSIG
2021-09-17 19:30 N 350° 7 7 LFSB 171730Z AUTO 35007KT 9999 BKN052 19/11 Q1014 NOSIG
2021-09-17 19:00 N 350°
(330°–40°)
7 4–7 LFSB 171700Z 35007KT 330V040 9999 FEW053 20/12 Q1014 NOSIG
2021-09-17 18:30 N 10°
(340°–40°)
7 4–7 LFSB 171630Z 01007KT 340V040 9999 FEW053 21/12 Q1014 NOSIG
2021-09-17 18:00 var 360°
(330°–40°)
7 4–7 LFSB 171600Z 36007KT 330V040 9999 FEW053 22/12 Q1014 NOSIG
2021-09-17 17:30 N 350°
(320°–50°)
6 2–6 LFSB 171530Z 35006KT 320V050 9999 FEW050 22/11 Q1014 NOSIG
2021-09-17 17:00 var 360°
(300°–80°)
6 0–6 LFSB 171500Z 36006KT 300V080 9999 FEW046 22/11 Q1014 NOSIG
2021-09-17 16:30 var 360°
(320°–50°)
7 2–7 LFSB 171430Z 36007KT 320V050 9999 SCT045 22/11 Q1015 NOSIG
2021-09-17 16:00 var 360°
(300°–50°)
5 2–5 LFSB 171400Z 36005KT 300V050 9999 SCT040 22/11 Q1015 NOSIG
2021-09-17 15:30 N 350°
(300°–30°)
7 4–7 LFSB 171330Z 35007KT 300V030 9999 SCT040 22/12 Q1015 NOSIG
2021-09-17 15:00 - 3 - LFSB 171300Z VRB03KT 9999 SCT040 22/12 Q1015 NOSIG
2021-09-17 14:30 NO 30°
(350°–110°)
5 0–5 LFSB 171230Z 03005KT 350V110 9999 SCT040 SCT046 22/12 Q1015 NOSIG
2021-09-17 14:00 var 360°
(330°–100°)
5 0–5 LFSB 171200Z 36005KT 330V100 9999 SCT033 SCT040 21/12 Q1016 NOSIG
2021-09-17 13:30 var 360°
(320°–50°)
6 2–6 LFSB 171130Z 36006KT 320V050 9999 SCT030 SCT046 21/13 Q1016 NOSIG
2021-09-17 13:00 N 10°
(340°–60°)
6 1–6 LFSB 171100Z 01006KT 340V060 9999 SCT029 BKN043 20/12 Q1016 NOSIG
2021-09-17 12:30 var 360°
(310°–100°)
4 0–4 LFSB 171030Z 36004KT 310V100 9999 SCT025 BKN043 20/13 Q1016 NOSIG
2021-09-17 12:00 var 360°
(320°–50°)
6 2–6 LFSB 171000Z 36006KT 320V050 9999 SCT024 SCT032 BKN040 20/13 Q1016 NOSIG
2021-09-17 11:30 - 3 - LFSB 170930Z VRB03KT 9999 SCT022 SCT032 BKN043 19/13 Q1016 NOSIG
2021-09-17 11:00 N 350°
(320°–30°)
4 3–4 LFSB 170900Z 35004KT 320V030 9999 FEW016 BKN043 18/13 Q1017 NOSIG
2021-09-17 10:30 var 360°
(290°–70°)
3 0–3 LFSB 170830Z 36003KT 290V070 9999 FEW016 SCT043 BKN053 19/15 Q1017 NOSIG
2021-09-17 10:00 - 3 - LFSB 170800Z VRB03KT 9999 FEW020 SCT043 BKN053 17/13 Q1017 NOSIG
2021-09-17 09:30 - 3 - LFSB 170730Z VRB03KT 9999 FEW010 SCT040 BKN053 16/14 Q1017 NOSIG
2021-09-17 09:00 NW 330°
(300°–360°)
3 2–3 LFSB 170700Z 33003KT 300V360 9999 FEW010 SCT040 BKN053 15/14 Q1017 NOSIG
2021-09-17 08:30 - 2 - LFSB 170630Z VRB02KT 9999 FEW030 SCT043 BKN053 14/14 Q1017 NOSIG
2021-09-17 08:00 W 270° 2 1 LFSB 170600Z 27002KT 9999 FEW030 BKN040 BKN053 14/13 Q1017 NOSIG
2021-09-17 07:30 NW 320° 2 2 LFSB 170530Z 32002KT 9999 FEW020 SCT040 BKN053 14/13 Q1017 NOSIG
2021-09-17 07:00 NW 300° 3 2 LFSB 170500Z 30003KT 9999 FEW015 SCT030 BKN045 14/13 Q1017 NOSIG
2021-09-17 06:30 NW 320° 4 4 LFSB 170430Z 32004KT 9999 FEW015 SCT030 BKN045 14/13 Q1017 NOSIG
2021-09-17 06:00 W 270° 2 1 LFSB 170400Z 27002KT 9999 SCT030 BKN045 14/13 Q1017 NOSIG
2021-09-17 05:30 - 0 - LFSB 170330Z AUTO 00000KT 9999 FEW030 BKN046 BKN056 14/13 Q1017 TEMPO 0800 BCFG
2021-09-17 05:00 SW 210° 2 - LFSB 170300Z AUTO 21002KT 9999 BKN043 OVC058 14/13 Q1017 NOSIG
2021-09-17 04:30 W 260° 3 1 LFSB 170230Z AUTO 26003KT 9999 SCT042 BKN058 14/13 Q1017 NOSIG
2021-09-17 04:00 - 3 - LFSB 170200Z AUTO VRB03KT 9999 SCT040 OVC058 15/13 Q1017 NOSIG
2021-09-17 03:30 - 2 - LFSB 170130Z AUTO VRB02KT 9999 SCT042 BKN058 15/13 Q1017 NOSIG
2021-09-17 03:00 W 290° 3 2 LFSB 170100Z AUTO 29003KT 9999 BKN041 OVC056 15/13 Q1018 NOSIG
2021-09-17 02:30 W 290° 3 2 LFSB 170030Z AUTO 29003KT 9999 SCT041 OVC054 15/13 Q1018 NOSIG
2021-09-17 02:00 NW 320° 5 5 LFSB 170000Z AUTO 32005KT 9999 BKN040 BKN047 OVC056 16/13 Q1018 NOSIG
2021-09-17 01:30 NW 330°
(310°–10°)
4 3–4 LFSB 162330Z AUTO 33004KT 310V010 9999 BKN041 BKN047 OVC058 16/13 Q1018 NOSIG
2021-09-17 01:00 NW 330° 6 6 LFSB 162300Z AUTO 33006KT 9999 OVC044 16/13 Q1018 NOSIG
2021-09-17 00:30 NW 320° 7 7 LFSB 162230Z AUTO 32007KT 9999 BKN045 OVC054 16/13 Q1018 NOSIG
2021-09-17 00:00 NW 310° 8 7 LFSB 162200Z AUTO 31008KT 9999 BKN046 OVC054 17/14 Q1018 NOSIG
2021-09-16 23:30 NW 330° 9 9 LFSB 162130Z AUTO 33009KT 9999 BKN042 OVC049 17/14 Q1018 NOSIG
2021-09-16 23:00 NW 330° 8 8 LFSB 162100Z AUTO 33008KT 9999 OVC039 17/14 Q1018 NOSIG
2021-09-16 22:30 NW 330° 8 8 LFSB 162030Z AUTO 33008KT 9999 BKN037 OVC043 17/14 Q1018 NOSIG
2021-09-16 22:00 NW 330°
(300°–360°)
6 5–6 LFSB 162000Z AUTO 33006KT 300V360 9999 BKN037 OVC043 17/14 Q1017 NOSIG
2021-09-16 21:30 NW 330° 6 6 LFSB 161930Z AUTO 33006KT 9999 OVC037 18/15 Q1017 NOSIG